sensor_id;sensor_type;location;lat;lon;timestamp;P1;durP1;ratioP1;P2;durP2;ratioP2
2934;SDS011;2462;51.456;7.248;2023-12-20T00:00:49;8.40;;;6.30;;
2934;SDS011;2462;51.456;7.248;2023-12-20T00:03:15;8.10;;;6.43;;
2934;SDS011;2462;51.456;7.248;2023-12-20T00:05:41;8.70;;;7.00;;
2934;SDS011;2462;51.456;7.248;2023-12-20T00:08:07;7.20;;;6.10;;
2934;SDS011;2462;51.456;7.248;2023-12-20T00:10:33;7.57;;;5.83;;
2934;SDS011;2462;51.456;7.248;2023-12-20T00:12:59;7.23;;;6.03;;
2934;SDS011;2462;51.456;7.248;2023-12-20T00:15:25;7.13;;;6.13;;
2934;SDS011;2462;51.456;7.248;2023-12-20T00:17:51;6.73;;;6.13;;
2934;SDS011;2462;51.456;7.248;2023-12-20T00:20:17;7.10;;;6.40;;
2934;SDS011;2462;51.456;7.248;2023-12-20T00:22:43;8.00;;;6.60;;
2934;SDS011;2462;51.456;7.248;2023-12-20T00:25:09;8.60;;;6.33;;
2934;SDS011;2462;51.456;7.248;2023-12-20T00:27:35;8.40;;;6.37;;
2934;SDS011;2462;51.456;7.248;2023-12-20T00:30:00;8.00;;;6.00;;
2934;SDS011;2462;51.456;7.248;2023-12-20T00:32:26;7.33;;;6.00;;
2934;SDS011;2462;51.456;7.248;2023-12-20T00:34:52;7.03;;;5.80;;
2934;SDS011;2462;51.456;7.248;2023-12-20T00:37:18;7.63;;;6.67;;
2934;SDS011;2462;51.456;7.248;2023-12-20T00:39:44;7.50;;;6.43;;
2934;SDS011;2462;51.456;7.248;2023-12-20T00:42:10;7.37;;;5.90;;
2934;SDS011;2462;51.456;7.248;2023-12-20T00:44:36;8.37;;;6.53;;
2934;SDS011;2462;51.456;7.248;2023-12-20T00:47:02;8.87;;;7.13;;
2934;SDS011;2462;51.456;7.248;2023-12-20T00:49:28;7.00;;;5.73;;
2934;SDS011;2462;51.456;7.248;2023-12-20T00:51:54;8.80;;;6.50;;
2934;SDS011;2462;51.456;7.248;2023-12-20T00:54:20;6.80;;;6.10;;
2934;SDS011;2462;51.456;7.248;2023-12-20T00:56:46;7.63;;;6.30;;
2934;SDS011;2462;51.456;7.248;2023-12-20T00:59:12;6.00;;;5.40;;
2934;SDS011;2462;51.456;7.248;2023-12-20T01:01:38;8.17;;;5.63;;
2934;SDS011;2462;51.456;7.248;2023-12-20T01:04:04;9.47;;;5.83;;
2934;SDS011;2462;51.456;7.248;2023-12-20T01:06:30;7.70;;;6.23;;
2934;SDS011;2462;51.456;7.248;2023-12-20T01:08:56;6.60;;;5.60;;
2934;SDS011;2462;51.456;7.248;2023-12-20T01:11:22;8.80;;;6.90;;
2934;SDS011;2462;51.456;7.248;2023-12-20T01:13:48;7.30;;;6.30;;
2934;SDS011;2462;51.456;7.248;2023-12-20T01:16:14;7.87;;;6.23;;
2934;SDS011;2462;51.456;7.248;2023-12-20T01:18:39;7.87;;;5.90;;
2934;SDS011;2462;51.456;7.248;2023-12-20T01:21:05;7.80;;;6.37;;
2934;SDS011;2462;51.456;7.248;2023-12-20T01:23:32;7.93;;;5.73;;
2934;SDS011;2462;51.456;7.248;2023-12-20T01:25:58;5.83;;;5.23;;
2934;SDS011;2462;51.456;7.248;2023-12-20T01:28:27;6.90;;;6.17;;
2934;SDS011;2462;51.456;7.248;2023-12-20T01:30:53;7.57;;;5.23;;
2934;SDS011;2462;51.456;7.248;2023-12-20T01:33:19;8.50;;;6.10;;
2934;SDS011;2462;51.456;7.248;2023-12-20T01:35:45;8.63;;;5.73;;
2934;SDS011;2462;51.456;7.248;2023-12-20T01:38:11;6.93;;;5.63;;
2934;SDS011;2462;51.456;7.248;2023-12-20T01:40:37;8.33;;;6.30;;
2934;SDS011;2462;51.456;7.248;2023-12-20T01:43:07;10.83;;;4.90;;
2934;SDS011;2462;51.456;7.248;2023-12-20T01:45:33;6.83;;;5.40;;
2934;SDS011;2462;51.456;7.248;2023-12-20T01:47:59;5.90;;;5.30;;
2934;SDS011;2462;51.456;7.248;2023-12-20T01:50:27;6.83;;;5.13;;
2934;SDS011;2462;51.456;7.248;2023-12-20T01:52:53;6.00;;;5.27;;
2934;SDS011;2462;51.456;7.248;2023-12-20T01:55:22;6.13;;;4.87;;
2934;SDS011;2462;51.456;7.248;2023-12-20T01:57:48;9.13;;;5.90;;
2934;SDS011;2462;51.456;7.248;2023-12-20T02:00:14;6.60;;;4.73;;
2934;SDS011;2462;51.456;7.248;2023-12-20T02:02:40;5.67;;;4.90;;
2934;SDS011;2462;51.456;7.248;2023-12-20T02:05:06;5.10;;;4.60;;
2934;SDS011;2462;51.456;7.248;2023-12-20T02:07:32;5.57;;;5.07;;
2934;SDS011;2462;51.456;7.248;2023-12-20T02:09:59;8.40;;;5.73;;
2934;SDS011;2462;51.456;7.248;2023-12-20T02:12:25;8.60;;;5.40;;
2934;SDS011;2462;51.456;7.248;2023-12-20T02:14:51;5.00;;;4.50;;
2934;SDS011;2462;51.456;7.248;2023-12-20T02:17:19;6.40;;;4.50;;
2934;SDS011;2462;51.456;7.248;2023-12-20T02:19:45;6.03;;;4.23;;
2934;SDS011;2462;51.456;7.248;2023-12-20T02:22:11;7.00;;;5.27;;
2934;SDS011;2462;51.456;7.248;2023-12-20T02:24:37;5.50;;;4.50;;
2934;SDS011;2462;51.456;7.248;2023-12-20T02:27:03;7.53;;;4.70;;
2934;SDS011;2462;51.456;7.248;2023-12-20T02:29:31;8.33;;;5.23;;
2934;SDS011;2462;51.456;7.248;2023-12-20T02:31:57;6.93;;;4.83;;
2934;SDS011;2462;51.456;7.248;2023-12-20T02:34:23;5.33;;;4.77;;
2934;SDS011;2462;51.456;7.248;2023-12-20T02:36:49;6.30;;;4.40;;
2934;SDS011;2462;51.456;7.248;2023-12-20T02:39:15;5.07;;;4.20;;
2934;SDS011;2462;51.456;7.248;2023-12-20T02:41:41;6.07;;;4.33;;
2934;SDS011;2462;51.456;7.248;2023-12-20T02:44:07;7.73;;;5.13;;
2934;SDS011;2462;51.456;7.248;2023-12-20T02:46:33;9.77;;;4.57;;
2934;SDS011;2462;51.456;7.248;2023-12-20T02:48:59;6.00;;;4.30;;
2934;SDS011;2462;51.456;7.248;2023-12-20T02:51:25;7.03;;;4.53;;
2934;SDS011;2462;51.456;7.248;2023-12-20T02:53:51;5.33;;;4.40;;
2934;SDS011;2462;51.456;7.248;2023-12-20T02:56:17;6.10;;;4.20;;
2934;SDS011;2462;51.456;7.248;2023-12-20T02:58:43;4.60;;;4.20;;
2934;SDS011;2462;51.456;7.248;2023-12-20T03:01:09;6.07;;;3.67;;
2934;SDS011;2462;51.456;7.248;2023-12-20T03:03:35;6.90;;;4.50;;
2934;SDS011;2462;51.456;7.248;2023-12-20T03:06:01;5.13;;;4.10;;
2934;SDS011;2462;51.456;7.248;2023-12-20T03:08:27;5.47;;;4.47;;
2934;SDS011;2462;51.456;7.248;2023-12-20T03:10:53;5.63;;;4.47;;
2934;SDS011;2462;51.456;7.248;2023-12-20T03:13:19;6.63;;;4.40;;
2934;SDS011;2462;51.456;7.248;2023-12-20T03:15:45;5.07;;;4.30;;
2934;SDS011;2462;51.456;7.248;2023-12-20T03:18:11;6.13;;;4.40;;
2934;SDS011;2462;51.456;7.248;2023-12-20T03:20:37;5.40;;;4.20;;
2934;SDS011;2462;51.456;7.248;2023-12-20T03:23:03;8.13;;;4.10;;
2934;SDS011;2462;51.456;7.248;2023-12-20T03:25:29;5.83;;;4.10;;
2934;SDS011;2462;51.456;7.248;2023-12-20T03:27:55;6.97;;;4.70;;
2934;SDS011;2462;51.456;7.248;2023-12-20T03:30:21;5.77;;;4.87;;
2934;SDS011;2462;51.456;7.248;2023-12-20T03:32:47;5.87;;;4.23;;
2934;SDS011;2462;51.456;7.248;2023-12-20T03:35:13;6.90;;;4.13;;
2934;SDS011;2462;51.456;7.248;2023-12-20T03:37:39;5.40;;;4.10;;
2934;SDS011;2462;51.456;7.248;2023-12-20T03:40:05;5.87;;;4.00;;
2934;SDS011;2462;51.456;7.248;2023-12-20T03:42:31;5.67;;;4.13;;
2934;SDS011;2462;51.456;7.248;2023-12-20T03:44:57;6.10;;;3.80;;
2934;SDS011;2462;51.456;7.248;2023-12-20T03:47:23;5.87;;;3.80;;
2934;SDS011;2462;51.456;7.248;2023-12-20T03:49:49;5.90;;;3.40;;
2934;SDS011;2462;51.456;7.248;2023-12-20T03:52:14;8.60;;;4.63;;
2934;SDS011;2462;51.456;7.248;2023-12-20T03:54:40;6.43;;;4.03;;
2934;SDS011;2462;51.456;7.248;2023-12-20T03:57:07;4.87;;;4.37;;
2934;SDS011;2462;51.456;7.248;2023-12-20T03:59:36;5.50;;;3.83;;
2934;SDS011;2462;51.456;7.248;2023-12-20T04:02:03;6.07;;;4.13;;
2934;SDS011;2462;51.456;7.248;2023-12-20T04:04:29;4.97;;;3.83;;
2934;SDS011;2462;51.456;7.248;2023-12-20T04:06:55;4.30;;;3.90;;
2934;SDS011;2462;51.456;7.248;2023-12-20T04:09:21;5.73;;;3.90;;
2934;SDS011;2462;51.456;7.248;2023-12-20T04:11:46;7.20;;;4.23;;
2934;SDS011;2462;51.456;7.248;2023-12-20T04:14:12;4.63;;;3.90;;
2934;SDS011;2462;51.456;7.248;2023-12-20T04:16:39;5.10;;;4.10;;
2934;SDS011;2462;51.456;7.248;2023-12-20T04:19:05;5.37;;;3.40;;
2934;SDS011;2462;51.456;7.248;2023-12-20T04:21:30;5.53;;;3.30;;
2934;SDS011;2462;51.456;7.248;2023-12-20T04:23:56;4.90;;;3.80;;
2934;SDS011;2462;51.456;7.248;2023-12-20T04:26:22;5.33;;;4.10;;
2934;SDS011;2462;51.456;7.248;2023-12-20T04:28:48;6.10;;;3.70;;
2934;SDS011;2462;51.456;7.248;2023-12-20T04:31:14;3.90;;;3.37;;
2934;SDS011;2462;51.456;7.248;2023-12-20T04:33:40;7.77;;;4.23;;
2934;SDS011;2462;51.456;7.248;2023-12-20T04:36:06;5.57;;;3.40;;
2934;SDS011;2462;51.456;7.248;2023-12-20T04:38:34;6.00;;;3.80;;
2934;SDS011;2462;51.456;7.248;2023-12-20T04:40:59;4.80;;;3.57;;
2934;SDS011;2462;51.456;7.248;2023-12-20T04:43:25;5.43;;;3.87;;
2934;SDS011;2462;51.456;7.248;2023-12-20T04:45:51;5.87;;;3.63;;
2934;SDS011;2462;51.456;7.248;2023-12-20T04:48:17;5.07;;;3.50;;
2934;SDS011;2462;51.456;7.248;2023-12-20T04:50:43;6.27;;;3.70;;
2934;SDS011;2462;51.456;7.248;2023-12-20T04:53:09;3.50;;;3.20;;
2934;SDS011;2462;51.456;7.248;2023-12-20T04:55:35;4.23;;;3.77;;
2934;SDS011;2462;51.456;7.248;2023-12-20T04:58:01;4.03;;;3.00;;
2934;SDS011;2462;51.456;7.248;2023-12-20T05:00:27;3.83;;;3.20;;
2934;SDS011;2462;51.456;7.248;2023-12-20T05:02:53;6.40;;;3.40;;
2934;SDS011;2462;51.456;7.248;2023-12-20T05:05:20;3.93;;;3.50;;
2934;SDS011;2462;51.456;7.248;2023-12-20T05:07:46;4.70;;;3.27;;
2934;SDS011;2462;51.456;7.248;2023-12-20T05:10:12;4.80;;;3.63;;
2934;SDS011;2462;51.456;7.248;2023-12-20T05:12:38;4.13;;;3.07;;
2934;SDS011;2462;51.456;7.248;2023-12-20T05:15:05;5.77;;;3.80;;
2934;SDS011;2462;51.456;7.248;2023-12-20T05:17:31;5.43;;;3.87;;
2934;SDS011;2462;51.456;7.248;2023-12-20T05:19:57;5.67;;;3.53;;
2934;SDS011;2462;51.456;7.248;2023-12-20T05:22:23;4.93;;;3.23;;
2934;SDS011;2462;51.456;7.248;2023-12-20T05:24:49;5.73;;;3.63;;
2934;SDS011;2462;51.456;7.248;2023-12-20T05:27:15;6.23;;;3.57;;
2934;SDS011;2462;51.456;7.248;2023-12-20T05:29:41;5.17;;;3.93;;
2934;SDS011;2462;51.456;7.248;2023-12-20T05:32:06;4.40;;;3.03;;
2934;SDS011;2462;51.456;7.248;2023-12-20T05:34:32;8.80;;;4.30;;
2934;SDS011;2462;51.456;7.248;2023-12-20T05:36:58;5.93;;;3.40;;
2934;SDS011;2462;51.456;7.248;2023-12-20T05:39:24;4.00;;;3.27;;
2934;SDS011;2462;51.456;7.248;2023-12-20T05:41:50;4.40;;;3.20;;
2934;SDS011;2462;51.456;7.248;2023-12-20T05:44:16;4.50;;;3.23;;
2934;SDS011;2462;51.456;7.248;2023-12-20T05:46:42;6.23;;;3.70;;
2934;SDS011;2462;51.456;7.248;2023-12-20T05:49:08;5.80;;;4.13;;
2934;SDS011;2462;51.456;7.248;2023-12-20T05:51:35;5.27;;;3.50;;
2934;SDS011;2462;51.456;7.248;2023-12-20T05:54:01;8.20;;;3.50;;
2934;SDS011;2462;51.456;7.248;2023-12-20T05:56:27;5.57;;;3.20;;
2934;SDS011;2462;51.456;7.248;2023-12-20T05:58:53;6.57;;;3.57;;
2934;SDS011;2462;51.456;7.248;2023-12-20T06:01:19;5.60;;;3.60;;
2934;SDS011;2462;51.456;7.248;2023-12-20T06:03:45;5.20;;;3.20;;
2934;SDS011;2462;51.456;7.248;2023-12-20T06:06:11;4.73;;;4.10;;
2934;SDS011;2462;51.456;7.248;2023-12-20T06:08:38;6.13;;;3.60;;
2934;SDS011;2462;51.456;7.248;2023-12-20T06:11:04;7.07;;;3.67;;
2934;SDS011;2462;51.456;7.248;2023-12-20T06:13:30;4.03;;;3.57;;
2934;SDS011;2462;51.456;7.248;2023-12-20T06:15:56;4.60;;;2.97;;
2934;SDS011;2462;51.456;7.248;2023-12-20T06:18:22;7.50;;;3.50;;
2934;SDS011;2462;51.456;7.248;2023-12-20T06:20:49;6.77;;;4.07;;
2934;SDS011;2462;51.456;7.248;2023-12-20T06:23:15;3.50;;;2.93;;
2934;SDS011;2462;51.456;7.248;2023-12-20T06:25:41;6.40;;;3.73;;
2934;SDS011;2462;51.456;7.248;2023-12-20T06:28:07;8.17;;;3.73;;
2934;SDS011;2462;51.456;7.248;2023-12-20T06:30:35;4.77;;;3.80;;
2934;SDS011;2462;51.456;7.248;2023-12-20T06:33:01;5.70;;;3.50;;
2934;SDS011;2462;51.456;7.248;2023-12-20T06:35:27;7.13;;;4.13;;
2934;SDS011;2462;51.456;7.248;2023-12-20T06:37:53;4.57;;;3.50;;
2934;SDS011;2462;51.456;7.248;2023-12-20T06:40:19;6.63;;;3.60;;
2934;SDS011;2462;51.456;7.248;2023-12-20T06:42:45;5.40;;;4.20;;
2934;SDS011;2462;51.456;7.248;2023-12-20T06:45:11;5.33;;;3.30;;
2934;SDS011;2462;51.456;7.248;2023-12-20T06:47:37;5.80;;;3.57;;
2934;SDS011;2462;51.456;7.248;2023-12-20T06:50:04;7.97;;;4.43;;
2934;SDS011;2462;51.456;7.248;2023-12-20T06:52:30;5.20;;;3.93;;
2934;SDS011;2462;51.456;7.248;2023-12-20T06:54:56;3.47;;;3.13;;
2934;SDS011;2462;51.456;7.248;2023-12-20T06:57:21;5.57;;;4.03;;
2934;SDS011;2462;51.456;7.248;2023-12-20T06:59:48;5.07;;;3.87;;
2934;SDS011;2462;51.456;7.248;2023-12-20T07:02:14;4.10;;;3.30;;
2934;SDS011;2462;51.456;7.248;2023-12-20T07:04:40;5.63;;;4.37;;
2934;SDS011;2462;51.456;7.248;2023-12-20T07:07:06;6.50;;;3.60;;
2934;SDS011;2462;51.456;7.248;2023-12-20T07:09:32;4.70;;;4.17;;
2934;SDS011;2462;51.456;7.248;2023-12-20T07:11:59;5.00;;;3.17;;
2934;SDS011;2462;51.456;7.248;2023-12-20T07:14:25;6.97;;;3.67;;
2934;SDS011;2462;51.456;7.248;2023-12-20T07:16:51;7.00;;;3.73;;
2934;SDS011;2462;51.456;7.248;2023-12-20T07:19:17;6.10;;;3.03;;
2934;SDS011;2462;51.456;7.248;2023-12-20T07:21:43;6.00;;;3.63;;
2934;SDS011;2462;51.456;7.248;2023-12-20T07:24:09;5.83;;;3.50;;
2934;SDS011;2462;51.456;7.248;2023-12-20T07:26:35;6.20;;;3.60;;
2934;SDS011;2462;51.456;7.248;2023-12-20T07:29:02;3.87;;;3.20;;
2934;SDS011;2462;51.456;7.248;2023-12-20T07:31:29;4.97;;;3.83;;
2934;SDS011;2462;51.456;7.248;2023-12-20T07:33:55;5.33;;;3.30;;
2934;SDS011;2462;51.456;7.248;2023-12-20T07:36:21;4.47;;;3.50;;
2934;SDS011;2462;51.456;7.248;2023-12-20T07:38:47;3.93;;;3.23;;
2934;SDS011;2462;51.456;7.248;2023-12-20T07:41:13;5.40;;;3.30;;
2934;SDS011;2462;51.456;7.248;2023-12-20T07:43:41;3.83;;;3.13;;
2934;SDS011;2462;51.456;7.248;2023-12-20T07:46:09;7.33;;;3.60;;
2934;SDS011;2462;51.456;7.248;2023-12-20T07:48:35;7.30;;;3.63;;
2934;SDS011;2462;51.456;7.248;2023-12-20T07:51:01;5.43;;;3.73;;
2934;SDS011;2462;51.456;7.248;2023-12-20T07:53:27;4.67;;;3.90;;
2934;SDS011;2462;51.456;7.248;2023-12-20T07:55:54;6.50;;;3.47;;
2934;SDS011;2462;51.456;7.248;2023-12-20T07:58:20;7.23;;;3.77;;
2934;SDS011;2462;51.456;7.248;2023-12-20T08:00:45;5.80;;;3.67;;
2934;SDS011;2462;51.456;7.248;2023-12-20T08:03:11;5.80;;;4.00;;
2934;SDS011;2462;51.456;7.248;2023-12-20T08:05:38;4.90;;;3.53;;
2934;SDS011;2462;51.456;7.248;2023-12-20T08:08:07;5.47;;;3.40;;
2934;SDS011;2462;51.456;7.248;2023-12-20T08:10:33;6.73;;;4.63;;
2934;SDS011;2462;51.456;7.248;2023-12-20T08:12:59;4.60;;;3.73;;
2934;SDS011;2462;51.456;7.248;2023-12-20T08:15:25;7.60;;;4.20;;
2934;SDS011;2462;51.456;7.248;2023-12-20T08:17:50;8.97;;;4.33;;
2934;SDS011;2462;51.456;7.248;2023-12-20T08:20:17;6.90;;;3.80;;
2934;SDS011;2462;51.456;7.248;2023-12-20T08:22:43;5.40;;;3.33;;
2934;SDS011;2462;51.456;7.248;2023-12-20T08:25:08;5.43;;;3.47;;
2934;SDS011;2462;51.456;7.248;2023-12-20T08:27:40;6.10;;;3.30;;
2934;SDS011;2462;51.456;7.248;2023-12-20T08:30:07;9.17;;;5.10;;
2934;SDS011;2462;51.456;7.248;2023-12-20T08:32:34;14.73;;;4.10;;
2934;SDS011;2462;51.456;7.248;2023-12-20T08:35:00;8.57;;;4.80;;
2934;SDS011;2462;51.456;7.248;2023-12-20T08:37:26;6.63;;;4.60;;
2934;SDS011;2462;51.456;7.248;2023-12-20T08:39:52;8.80;;;4.47;;
2934;SDS011;2462;51.456;7.248;2023-12-20T08:42:17;5.70;;;4.20;;
2934;SDS011;2462;51.456;7.248;2023-12-20T08:44:44;8.23;;;3.87;;
2934;SDS011;2462;51.456;7.248;2023-12-20T08:47:10;6.73;;;4.07;;
2934;SDS011;2462;51.456;7.248;2023-12-20T08:49:38;5.03;;;3.67;;
2934;SDS011;2462;51.456;7.248;2023-12-20T08:52:04;5.50;;;3.70;;
2934;SDS011;2462;51.456;7.248;2023-12-20T08:54:30;3.93;;;3.50;;
2934;SDS011;2462;51.456;7.248;2023-12-20T08:56:56;7.50;;;4.10;;
2934;SDS011;2462;51.456;7.248;2023-12-20T08:59:22;5.40;;;4.23;;
2934;SDS011;2462;51.456;7.248;2023-12-20T09:01:48;8.50;;;4.00;;
2934;SDS011;2462;51.456;7.248;2023-12-20T09:04:19;5.43;;;3.57;;
2934;SDS011;2462;51.456;7.248;2023-12-20T09:06:45;7.63;;;4.10;;
2934;SDS011;2462;51.456;7.248;2023-12-20T09:09:10;8.83;;;4.10;;
2934;SDS011;2462;51.456;7.248;2023-12-20T09:11:38;5.47;;;4.03;;
2934;SDS011;2462;51.456;7.248;2023-12-20T09:14:04;4.87;;;4.03;;
2934;SDS011;2462;51.456;7.248;2023-12-20T09:16:30;6.73;;;4.50;;
2934;SDS011;2462;51.456;7.248;2023-12-20T09:18:56;9.67;;;4.03;;
2934;SDS011;2462;51.456;7.248;2023-12-20T09:21:23;4.83;;;3.77;;
2934;SDS011;2462;51.456;7.248;2023-12-20T09:23:49;7.90;;;3.53;;
2934;SDS011;2462;51.456;7.248;2023-12-20T09:26:14;8.30;;;4.10;;
2934;SDS011;2462;51.456;7.248;2023-12-20T09:28:40;8.43;;;4.47;;
2934;SDS011;2462;51.456;7.248;2023-12-20T09:31:06;4.80;;;3.80;;
2934;SDS011;2462;51.456;7.248;2023-12-20T09:33:33;5.60;;;4.07;;
2934;SDS011;2462;51.456;7.248;2023-12-20T09:35:59;4.83;;;3.80;;
2934;SDS011;2462;51.456;7.248;2023-12-20T09:38:25;4.70;;;3.73;;
2934;SDS011;2462;51.456;7.248;2023-12-20T09:40:51;8.00;;;4.23;;
2934;SDS011;2462;51.456;7.248;2023-12-20T09:43:18;5.97;;;3.70;;
2934;SDS011;2462;51.456;7.248;2023-12-20T09:45:47;7.63;;;3.77;;
2934;SDS011;2462;51.456;7.248;2023-12-20T09:48:14;4.83;;;4.00;;
2934;SDS011;2462;51.456;7.248;2023-12-20T09:50:44;6.33;;;4.10;;
2934;SDS011;2462;51.456;7.248;2023-12-20T09:53:10;5.93;;;3.63;;
2934;SDS011;2462;51.456;7.248;2023-12-20T09:55:37;6.10;;;3.93;;
2934;SDS011;2462;51.456;7.248;2023-12-20T09:58:03;6.20;;;3.33;;
2934;SDS011;2462;51.456;7.248;2023-12-20T10:00:30;6.53;;;3.30;;
2934;SDS011;2462;51.456;7.248;2023-12-20T10:02:57;4.63;;;3.33;;
2934;SDS011;2462;51.456;7.248;2023-12-20T10:05:29;4.30;;;3.30;;
2934;SDS011;2462;51.456;7.248;2023-12-20T10:07:56;5.83;;;3.77;;
2934;SDS011;2462;51.456;7.248;2023-12-20T10:10:22;5.67;;;3.20;;
2934;SDS011;2462;51.456;7.248;2023-12-20T10:15:29;8.20;;;4.50;;
2934;SDS011;2462;51.456;7.248;2023-12-20T10:17:56;7.03;;;3.30;;
2934;SDS011;2462;51.456;7.248;2023-12-20T10:20:22;4.13;;;3.73;;
2934;SDS011;2462;51.456;7.248;2023-12-20T10:22:48;6.60;;;3.60;;
2934;SDS011;2462;51.456;7.248;2023-12-20T10:25:14;7.37;;;3.53;;
2934;SDS011;2462;51.456;7.248;2023-12-20T10:27:39;8.00;;;3.90;;
2934;SDS011;2462;51.456;7.248;2023-12-20T10:30:06;11.47;;;3.10;;
2934;SDS011;2462;51.456;7.248;2023-12-20T10:32:32;5.40;;;3.93;;
2934;SDS011;2462;51.456;7.248;2023-12-20T10:34:58;10.50;;;3.27;;
2934;SDS011;2462;51.456;7.248;2023-12-20T10:37:24;9.83;;;3.90;;
2934;SDS011;2462;51.456;7.248;2023-12-20T10:39:51;4.63;;;3.73;;
2934;SDS011;2462;51.456;7.248;2023-12-20T10:42:18;3.43;;;3.23;;
2934;SDS011;2462;51.456;7.248;2023-12-20T10:44:46;5.00;;;3.00;;
2934;SDS011;2462;51.456;7.248;2023-12-20T10:47:12;7.90;;;3.20;;
2934;SDS011;2462;51.456;7.248;2023-12-20T10:49:39;5.43;;;3.20;;
2934;SDS011;2462;51.456;7.248;2023-12-20T10:52:05;8.20;;;5.10;;
2934;SDS011;2462;51.456;7.248;2023-12-20T10:54:31;9.20;;;3.60;;
2934;SDS011;2462;51.456;7.248;2023-12-20T10:56:57;8.43;;;3.10;;
2934;SDS011;2462;51.456;7.248;2023-12-20T10:59:24;4.93;;;2.97;;
2934;SDS011;2462;51.456;7.248;2023-12-20T11:01:50;8.27;;;3.50;;
2934;SDS011;2462;51.456;7.248;2023-12-20T11:04:20;4.77;;;3.40;;
2934;SDS011;2462;51.456;7.248;2023-12-20T11:06:51;4.87;;;3.00;;
2934;SDS011;2462;51.456;7.248;2023-12-20T11:11:54;6.27;;;3.00;;
2934;SDS011;2462;51.456;7.248;2023-12-20T11:14:25;6.83;;;3.17;;
2934;SDS011;2462;51.456;7.248;2023-12-20T11:17:06;4.60;;;3.50;;
2934;SDS011;2462;51.456;7.248;2023-12-20T11:19:32;4.90;;;3.43;;
2934;SDS011;2462;51.456;7.248;2023-12-20T11:21:58;5.60;;;3.57;;
2934;SDS011;2462;51.456;7.248;2023-12-20T11:24:24;6.23;;;3.33;;
2934;SDS011;2462;51.456;7.248;2023-12-20T11:26:50;6.90;;;3.57;;
2934;SDS011;2462;51.456;7.248;2023-12-20T11:29:36;6.63;;;3.47;;
2934;SDS011;2462;51.456;7.248;2023-12-20T11:32:02;6.97;;;2.90;;
2934;SDS011;2462;51.456;7.248;2023-12-20T11:34:32;5.50;;;3.33;;
2934;SDS011;2462;51.456;7.248;2023-12-20T11:36:59;5.63;;;2.80;;
2934;SDS011;2462;51.456;7.248;2023-12-20T11:39:26;5.83;;;3.57;;
2934;SDS011;2462;51.456;7.248;2023-12-20T11:41:54;4.73;;;2.83;;
2934;SDS011;2462;51.456;7.248;2023-12-20T11:44:27;3.70;;;3.07;;
2934;SDS011;2462;51.456;7.248;2023-12-20T11:46:56;3.97;;;2.77;;
2934;SDS011;2462;51.456;7.248;2023-12-20T11:49:24;5.20;;;3.37;;
2934;SDS011;2462;51.456;7.248;2023-12-20T11:51:51;2.63;;;2.20;;
2934;SDS011;2462;51.456;7.248;2023-12-20T11:54:17;4.63;;;3.43;;
2934;SDS011;2462;51.456;7.248;2023-12-20T11:56:43;5.70;;;3.27;;
2934;SDS011;2462;51.456;7.248;2023-12-20T11:59:09;4.70;;;2.50;;
2934;SDS011;2462;51.456;7.248;2023-12-20T12:01:36;4.93;;;3.40;;
2934;SDS011;2462;51.456;7.248;2023-12-20T12:04:03;5.53;;;3.77;;
2934;SDS011;2462;51.456;7.248;2023-12-20T12:06:28;5.73;;;3.50;;
2934;SDS011;2462;51.456;7.248;2023-12-20T12:08:54;4.23;;;3.13;;
2934;SDS011;2462;51.456;7.248;2023-12-20T12:11:21;5.10;;;3.60;;
2934;SDS011;2462;51.456;7.248;2023-12-20T12:13:47;6.00;;;3.50;;
2934;SDS011;2462;51.456;7.248;2023-12-20T12:16:13;6.67;;;3.60;;
2934;SDS011;2462;51.456;7.248;2023-12-20T12:18:42;6.20;;;4.63;;
2934;SDS011;2462;51.456;7.248;2023-12-20T12:21:08;7.07;;;4.20;;
2934;SDS011;2462;51.456;7.248;2023-12-20T12:23:34;7.13;;;3.97;;
2934;SDS011;2462;51.456;7.248;2023-12-20T12:26:03;9.90;;;5.20;;
2934;SDS011;2462;51.456;7.248;2023-12-20T12:28:29;7.37;;;4.10;;
2934;SDS011;2462;51.456;7.248;2023-12-20T12:30:58;6.70;;;4.80;;
2934;SDS011;2462;51.456;7.248;2023-12-20T12:33:26;5.17;;;4.67;;
2934;SDS011;2462;51.456;7.248;2023-12-20T12:35:52;6.30;;;4.30;;
2934;SDS011;2462;51.456;7.248;2023-12-20T12:38:22;6.87;;;4.80;;
2934;SDS011;2462;51.456;7.248;2023-12-20T12:40:48;6.20;;;4.40;;
2934;SDS011;2462;51.456;7.248;2023-12-20T12:43:14;5.33;;;4.83;;
2934;SDS011;2462;51.456;7.248;2023-12-20T12:45:40;7.80;;;4.77;;
2934;SDS011;2462;51.456;7.248;2023-12-20T12:48:06;7.17;;;4.77;;
2934;SDS011;2462;51.456;7.248;2023-12-20T12:50:32;4.63;;;4.10;;
2934;SDS011;2462;51.456;7.248;2023-12-20T12:52:59;6.67;;;4.87;;
2934;SDS011;2462;51.456;7.248;2023-12-20T12:55:25;5.37;;;4.60;;
2934;SDS011;2462;51.456;7.248;2023-12-20T12:57:50;8.00;;;5.33;;
2934;SDS011;2462;51.456;7.248;2023-12-20T13:00:16;5.93;;;4.53;;
2934;SDS011;2462;51.456;7.248;2023-12-20T13:02:42;9.80;;;4.97;;
2934;SDS011;2462;51.456;7.248;2023-12-20T13:05:08;7.90;;;5.03;;
2934;SDS011;2462;51.456;7.248;2023-12-20T13:07:34;8.83;;;5.17;;
2934;SDS011;2462;51.456;7.248;2023-12-20T13:10:00;7.80;;;5.23;;
2934;SDS011;2462;51.456;7.248;2023-12-20T13:12:26;10.83;;;5.83;;
2934;SDS011;2462;51.456;7.248;2023-12-20T13:14:52;8.10;;;5.80;;
2934;SDS011;2462;51.456;7.248;2023-12-20T13:17:18;9.17;;;5.50;;
2934;SDS011;2462;51.456;7.248;2023-12-20T13:19:44;11.03;;;6.40;;
2934;SDS011;2462;51.456;7.248;2023-12-20T13:22:10;7.80;;;5.30;;
2934;SDS011;2462;51.456;7.248;2023-12-20T13:24:36;8.40;;;5.50;;
2934;SDS011;2462;51.456;7.248;2023-12-20T13:27:02;7.10;;;5.70;;
2934;SDS011;2462;51.456;7.248;2023-12-20T13:29:28;8.70;;;4.97;;
2934;SDS011;2462;51.456;7.248;2023-12-20T13:31:54;9.67;;;6.03;;
2934;SDS011;2462;51.456;7.248;2023-12-20T13:34:20;8.07;;;5.80;;
2934;SDS011;2462;51.456;7.248;2023-12-20T13:36:46;12.13;;;6.77;;
2934;SDS011;2462;51.456;7.248;2023-12-20T13:39:14;8.57;;;6.50;;
2934;SDS011;2462;51.456;7.248;2023-12-20T13:41:41;9.50;;;6.53;;
2934;SDS011;2462;51.456;7.248;2023-12-20T13:44:07;9.53;;;6.80;;
2934;SDS011;2462;51.456;7.248;2023-12-20T13:46:33;9.83;;;7.47;;
2934;SDS011;2462;51.456;7.248;2023-12-20T13:48:59;8.30;;;6.80;;
2934;SDS011;2462;51.456;7.248;2023-12-20T13:51:25;9.77;;;7.10;;
2934;SDS011;2462;51.456;7.248;2023-12-20T13:53:51;11.43;;;6.30;;
2934;SDS011;2462;51.456;7.248;2023-12-20T13:56:17;10.73;;;6.33;;
2934;SDS011;2462;51.456;7.248;2023-12-20T13:58:45;9.40;;;6.33;;
2934;SDS011;2462;51.456;7.248;2023-12-20T14:01:11;10.50;;;6.03;;
2934;SDS011;2462;51.456;7.248;2023-12-20T14:03:38;8.10;;;6.00;;
2934;SDS011;2462;51.456;7.248;2023-12-20T14:06:03;9.73;;;7.20;;
2934;SDS011;2462;51.456;7.248;2023-12-20T14:08:29;10.40;;;6.60;;
2934;SDS011;2462;51.456;7.248;2023-12-20T14:10:55;11.60;;;6.07;;
2934;SDS011;2462;51.456;7.248;2023-12-20T14:13:21;9.83;;;6.70;;
2934;SDS011;2462;51.456;7.248;2023-12-20T14:15:47;12.03;;;6.40;;
2934;SDS011;2462;51.456;7.248;2023-12-20T14:18:14;8.10;;;6.30;;
2934;SDS011;2462;51.456;7.248;2023-12-20T14:20:40;10.50;;;6.90;;
2934;SDS011;2462;51.456;7.248;2023-12-20T14:23:07;11.57;;;6.63;;
2934;SDS011;2462;51.456;7.248;2023-12-20T14:25:37;10.00;;;6.00;;
2934;SDS011;2462;51.456;7.248;2023-12-20T14:28:03;7.60;;;5.93;;
2934;SDS011;2462;51.456;7.248;2023-12-20T14:30:29;11.30;;;6.30;;
2934;SDS011;2462;51.456;7.248;2023-12-20T14:32:55;13.60;;;6.50;;
2934;SDS011;2462;51.456;7.248;2023-12-20T14:35:21;14.50;;;7.00;;
2934;SDS011;2462;51.456;7.248;2023-12-20T14:37:47;7.10;;;6.30;;
2934;SDS011;2462;51.456;7.248;2023-12-20T14:40:15;11.50;;;5.30;;
2934;SDS011;2462;51.456;7.248;2023-12-20T14:42:42;10.80;;;5.93;;
2934;SDS011;2462;51.456;7.248;2023-12-20T14:45:08;8.13;;;6.40;;
2934;SDS011;2462;51.456;7.248;2023-12-20T14:47:34;9.80;;;7.17;;
2934;SDS011;2462;51.456;7.248;2023-12-20T14:50:02;7.80;;;5.70;;
2934;SDS011;2462;51.456;7.248;2023-12-20T14:52:28;8.77;;;6.37;;
2934;SDS011;2462;51.456;7.248;2023-12-20T14:54:54;9.17;;;5.87;;
2934;SDS011;2462;51.456;7.248;2023-12-20T14:57:20;12.90;;;5.77;;
2934;SDS011;2462;51.456;7.248;2023-12-20T14:59:46;11.27;;;6.57;;
2934;SDS011;2462;51.456;7.248;2023-12-20T15:02:12;11.37;;;6.53;;
2934;SDS011;2462;51.456;7.248;2023-12-20T15:04:38;10.90;;;5.60;;
2934;SDS011;2462;51.456;7.248;2023-12-20T15:07:05;6.50;;;5.50;;
2934;SDS011;2462;51.456;7.248;2023-12-20T15:09:31;11.70;;;6.40;;
2934;SDS011;2462;51.456;7.248;2023-12-20T15:11:57;7.77;;;5.80;;
2934;SDS011;2462;51.456;7.248;2023-12-20T15:14:23;5.30;;;4.77;;